Weather observations for the past three days for
Van Nuys, Van Nuys Airport
Metric (Imperial)
Date Time (pdt) Wind (kph) Vis. (km) Weather Sky Cond. Temperature (ºC) Relative Humidity Wind Chill (°C) Heat Index (°C) Pressure Precipitation (cm)
Air Dwpt 6 hour altimeter (cm) sea level (mb) 1 hr 3 hr 6 hr
Max. Min.
03 12:51 SE 15 16.09 Overcast OVC027 16.7 9.4 62% 76.05 1013.2
03 11:51 Vrbl 11 16.09 Overcast OVC025 16.7 9.4 62% 76.07 1013.5
03 10:51 Vrbl 6 16.09 Overcast SCT010 OVC019 14.4 10 14.4 13.3 75% 76.1 1014.2
03 09:51 Vrbl 9 14.48 Overcast OVC017 13.9 11.1 83% 76.07 1013.7
03 08:51 S 13 3.22 Fog/Mist BKN009 OVC014 13.3 12.2 93% 76.05 1013.4
03 07:51 SE 9 8.05 Fog/Mist OVC017 13.9 11.7 87% 76 1012.7
03 06:51 E 13 16.09 Overcast OVC016 14.4 10.6 78% 75.95 1012.0
03 05:51 S 9 16.09 Overcast OVC017 14.4 10 75% 75.95 1011.7
03 04:51 SE 6 16.09 Overcast OVC017 13.9 10.6 14.4 13.9 81% 75.92 1011.5
03 03:51 SE 6 16.09 Overcast OVC017 13.9 10.6 81% 75.95 1011.9
03 02:51 S 9 16.09 Overcast OVC012 13.9 11.1 83% 75.95 1011.9
03 01:51 S 9 16.09 Overcast OVC010 13.9 12.2 90% 75.97 1012.3
03 00:51 SE 9 16.09 Overcast OVC009 14.4 12.2 87% 75.97 1012.2
02 23:51 E 7 16.09 Overcast OVC008 14.4 12.2 87% 75.92 1011.7
02 22:51 E 9 12.87 Overcast OVC005 14.4 12.8 25.6 14.4 90% 75.95 1012.0
02 21:51 E 11 16.09 Fair CLR 15 12.8 87% 75.92 1011.7
02 20:51 SE 15 16.09 Fair CLR 16.1 12.8 81% 75.84 1010.7
02 19:51 Vrbl 11 16.09 Fair CLR 17.2 12.8 76% 75.77 1009.7
02 18:51 SE 15 16.09 Fair CLR 20.6 12.8 61% 75.72 1008.9
02 17:51 SE 13 16.09 Fair CLR 24.4 12.8 48% 26 75.72 1008.7
02 16:51 SE 13 16.09 Fair CLR 25.6 12.8 26.1 17.2 45% 26 75.72 1008.8
02 15:51 SE 15 16.09 Fair CLR 25.6 12.8 45% 26 75.77 1009.4
02 14:51 SE 13 16.09 Fair CLR 25.6 12.8 45% 26 75.87 1010.6
02 13:51 S 9 16.09 Fair CLR 24.4 12.8 48% 26 75.92 1011.4
02 12:51 Vrbl 6 16.09 Fair CLR 22.8 12.2 51% 75.97 1012.3
02 11:51 S 9 12.87 Fair CLR 20.6 13.3 63% 76.05 1013.2
02 10:51 S 7 11.27 A Few Clouds FEW013 17.2 12.8 17.8 12.2 76% 76.07 1013.8
02 09:51 Vrbl 7 6.44 Overcast with Haze OVC011 16.7 12.8 78% 76.12 1014.4
02 08:51 S 7 6.44 Fog/Mist OVC006 15 12.8 87% 76.1 1014.1
02 07:51 SE 6 4.02 Fog/Mist OVC005 13.9 12.8 93% 76.1 1013.8
02 06:51 Calm 2.82 Fog/Mist OVC002 13.3 12.8 97% 76.07 1013.6
02 05:51 SE 7 9.66 Fog/Mist SCT003 BKN019 12.2 11.7 97% 76.05 1013.1
02 04:51 Calm 12.87 Fair CLR 13.3 12.2 15.6 12.8 93% 76 1012.6
02 03:51 Calm 14.48 Fair CLR 13.9 12.2 90% 75.97 1012.2
02 02:51 Calm 14.48 Fair CLR 14.4 12.2 87% 75.97 1012.2
02 01:51 Calm 14.48 Fair CLR 14.4 12.2 87% 76 1012.6
02 00:51 Calm 14.48 Fair CLR 15 12.8 87% 76.05 1013.3
01 23:51 SE 6 14.48 Fair CLR 15 12.8 87% 76.05 1013.3
01 22:51 E 9 16.09 Fair CLR 15.6 12.8 25 15.6 84% 76.02 1013.0
01 21:51 SE 11 16.09 Fair CLR 16.7 12.8 78% 76.02 1012.8
01 20:51 E 11 16.09 Fair CLR 18.3 12.8 70% 75.95 1011.8
01 19:51 SE 9 16.09 Fair CLR 20 13.3 65% 75.87 1010.9
01 18:51 Vrbl 7 16.09 Fair CLR 23.9 11.7 46% 25 75.84 1010.4
01 17:51 SE 17 16.09 Fair CLR 23.9 13.3 52% 25 75.82 1010.2
01 16:51 SE 20 16.09 Fair CLR 25 13.3 26.7 18.3 48% 26 75.82 1010.1
01 15:51 SE 13 16.09 Fair CLR 25.6 13.3 47% 26 75.84 1010.3
01 14:51 SE 17 16.09 Fair CLR 26.7 13.9 45% 27 75.9 1011.2
01 13:51 SE 7 16.09 Fair CLR 25 12.8 47% 26 75.95 1011.8
01 12:51 Vrbl 6 16.09 Fair CLR 22.8 12.8 53% 76 1012.6
01 11:51 Vrbl 6 14.48 Fair CLR 20.6 12.8 61% 76.07 1013.6
01 10:51 Calm 11.27 Partly Cloudy SCT020 18.3 12.2 18.3 13.9 68% 76.12 1014.3
01 09:51 NE 6 11.27 Overcast OVC017 17.2 11.7 70% 76.15 1014.5
01 08:51 Calm 11.27 Overcast OVC015 16.1 12.2 78% 76.12 1014.3
01 07:51 Calm 9.66 Overcast with Haze OVC014 15 11.7 81% 76.1 1014.1
01 06:51 E 7 9.66 Overcast with Haze OVC012 15 11.7 81% 76.07 1013.4
01 05:51 Calm 12.87 Overcast OVC012 14.4 12.2 87% 76.02 1013.0
01 04:51 Calm 16.09 Overcast OVC011 13.9 11.7 15 13.3 87% 76 1012.6
01 03:51 Calm 16.09 Mostly Cloudy FEW012 BKN017 13.3 11.7 90% 75.97 1012.4
01 02:51 Calm 16.09 A Few Clouds FEW014 13.9 11.7 87% 75.97 1012.3
01 01:51 Calm 16.09 Fair CLR 14.4 12.2 87% 76.02 1012.7
01 00:51 Calm 16.09 Fair CLR 14.4 12.2 87% 76.02 1012.9
30 23:51 Calm 16.09 Fair CLR 14.4 12.2 87% 76 1012.7
30 22:51 Calm 16.09 Fair CLR 13.9 12.2 23.3 13.9 90% 76 1012.6
30 21:51 SE 11 16.09 Fair CLR 15 12.2 83% 75.97 1012.2
30 20:51 SE 15 16.09 Fair CLR 15.6 12.2 80% 75.9 1011.5
30 19:51 SE 13 16.09 Fair CLR 17.2 12.2 73% 75.82 1010.4
30 18:51 SE 15 16.09 Fair CLR 19.4 12.8 66% 75.77 1009.5
30 17:51 E 20 16.09 Fair CLR 21.7 12.2 55% 75.74 1009.2
30 16:51 E 17 G 30 16.09 Fair CLR 23.3 12.2 24.4 18.9 50% 75.72 1008.9
30 15:51 SE 20 G 35 16.09 Fair CLR 23.9 11.7 46% 25 75.74 1009.0
30 14:51 S 19 G 30 16.09 Fair CLR 23.9 12.2 48% 25 75.77 1009.6
30 13:51 S 20 16.09 Fair CLR 23.9 12.2 48% 25 75.79 1009.8
Date Time (pdt) Wind (kph) Vis. (km) Weather Sky Cond. Air Dwpt Max. Min. Relative Humidity Wind Chill (°C) Heat Index (°C) altimeter (cm) sea level (mb) 1 hr 3 hr 6 hr
6 hour
Temperature (ºC) Pressure Precipitation (cm)